Hollandale, WI (53544)

11:19 PM CST on February 28, 2015 (GMT -0600)
S. Suburban Daleyville | Change Station
CLOSE
Current Station
Personal Weather Station
Location: Mt Horeb, WI
Elevation: 996 ft
Nearby Weather Stations

Elev 996 ft 42.89 °N, 89.81 °W | Updated 21 seconds ago

Overcast
Overcast
11.7 °F
Feels Like 12 °F
N
0.0
Wind Variable Wind from SSW
Gusts 1.0 mph

Today
High -- | Low -- °F
--% Chance of Precip.
Yesterday
High -- | Low -- °F
Precip. -- in
6:37 AM 5:47 PM
Waxing Gibbous, 82% visible
Pressure 30.43 in
Visibility 5.0 miles
Clouds Scattered Clouds 2600 ft
Overcast 3300 ft
Windchill 12 °F
Dew Point 9 °F
Humidity 87%
Rainfall 0.00 in
Snow Depth Not available.
UV 0 out of 12
Pollen .50 out of 12
Air Quality Not available.
Flu Activity Not available.
METAR KC29 010455Z AUTO 18006KT 5SM SCT026 OVC033 M09/M12 A3043 RMK AO1 T10921125

More Conditions Fewer Conditions

Pressure 30.43 in
Visibility 5.0 miles
Clouds Scattered Clouds 2600 ft
Overcast 3300 ft
Windchill 12 °F
Dew Point 9 °F
Humidity 87%
Rainfall 0.00 in
Snow Depth Not available.
UV 0 out of 12
Pollen .50 out of 12
Air Quality Not available.
Flu Activity Not available.
METAR KC29 010455Z AUTO 18006KT 5SM SCT026 OVC033 M09/M12 A3043 RMK AO1 T10921125

More Conditions Fewer Conditions

10-Day Weather Forecast

Almanac

Astronomy

Feb. 28, 2015 Rise Set
Actual Time
Civil Twilight
Nautical Twilight
Astronomical Twilight
Moon
Length of Visible Light
Length of Day
Tomorrow will be .
, % of the Moon is Illuminated

Today's Extremes

State Highs State Lows

Community

WunderPhotos

Upload Photos

1,801,319 photos uploaded!

WunderBlogs® & News

Nearby

Air Quality

  Air Quality AQ Index Pollutant
Not available.

Snow Depth

Station Depth Elevation

Earthquake Activity

City Distance Mag. Time & Date
Minimum magnitude displayed is 2.5.

Coastal Water Temperatures

Place Temperature

Nearby Weather Stations